This is the latest recevied weather packets stored in our database for station/object OE-11344. If no packets are shown the sender has not sent any weather packets the latest 10 day(s).
| Time | Temp. | Humidity | Pressure | Rain* | Wind** | Luminosity | Snow |
|---|---|---|---|---|---|---|---|
| 1787756112 | 20° C | 63% | 854.2 hPa | 0 mm | - | 320 W/m² | - |
| 1787755285 | 19.44° C | 58% | 854.2 hPa | 0 mm | - | 435 W/m² | - |
| 1787754912 | 19.44° C | 60% | 854.4 hPa | 0 mm | - | 362 W/m² | - |
| 1787754312 | 18.33° C | 60% | 854.4 hPa | 0 mm | - | 356 W/m² | - |
| 1787753485 | 18.89° C | 59% | 854.4 hPa | 0 mm | - | 320 W/m² | - |
| 1787753112 | 18.89° C | 58% | 854.4 hPa | 0 mm | - | 429 W/m² | - |
| 1787752512 | 18.33° C | 62% | 854.6 hPa | 0 mm | - | 302 W/m² | - |
| 1787751685 | 18.89° C | 58% | 854.5 hPa | 0 mm | - | 459 W/m² | - |
| 1787751312 | 18.33° C | 61% | 854.5 hPa | 0 mm | - | 199 W/m² | - |
| 1787749885 | 18.89° C | 56% | 854.4 hPa | 0 mm | - | 326 W/m² | - |
| 1787749512 | 18.89° C | 55% | 854.4 hPa | 0 mm | - | 465 W/m² | - |
| 1787748912 | 18.33° C | 57% | 854.4 hPa | 0 mm | - | 628 W/m² | - |
| 1787748085 | 17.78° C | 57% | 854.5 hPa | 0 mm | - | 447 W/m² | - |
| 1787747712 | 18.33° C | 60% | 854.6 hPa | 0 mm | - | 525 W/m² | - |
| 1787747111 | 18.89° C | 57% | 854.6 hPa | 0 mm | - | 755 W/m² | - |
| 1787746285 | 18.33° C | 60% | 854.7 hPa | 0 mm | - | 441 W/m² | - |
| 1787745912 | 17.78° C | 56% | 854.7 hPa | 0 mm | - | 296 W/m² | - |
| 1787745311 | 18.33° C | 56% | 854.6 hPa | 0 mm | - | 453 W/m² | - |
| 1787744484 | 17.78° C | 57% | 854.6 hPa | 0 mm | - | 380 W/m² | - |
| 1787744111 | 18.33° C | 56% | 854.6 hPa | 0 mm | - | 423 W/m² | - |
| 1787743512 | 17.78° C | 56% | 854.7 hPa | 0 mm | - | 266 W/m² | - |
| 1787742685 | 18.33° C | 54% | 854.7 hPa | 0 mm | - | 580 W/m² | - |
| 1787742311 | 17.78° C | 54% | 854.7 hPa | 0 mm | - | 525 W/m² | - |
| 1787741711 | 17.22° C | 55% | 854.7 hPa | 0 mm | - | 519 W/m² | - |
| 1787740885 | 17.22° C | 58% | 854.6 hPa | 0 mm | - | 634 W/m² | - |
* Rain latest hour (hover to see other rain measurements)
** Current wind speed in m/s (hover to see current wind gust speed)